createdAt,value
2022-11-29T00:01:06.368Z,95449.41
2022-11-29T00:03:34.486Z,95451.69
2022-11-29T00:06:13.269Z,95456.28
2022-11-29T00:08:41.375Z,95454.69
2022-11-29T00:11:13.801Z,95452.50
2022-11-29T00:13:40.454Z,95446.63
2022-11-29T00:16:12.159Z,95445.69
2022-11-29T00:18:38.966Z,95448.38
2022-11-29T00:21:07.005Z,95446.25
2022-11-29T00:23:33.849Z,95451.47
2022-11-29T00:26:07.943Z,95456.09
2022-11-29T00:28:36.263Z,95456.28
2022-11-29T00:31:15.228Z,95451.94
2022-11-29T00:33:41.907Z,95444.69
2022-11-29T00:36:08.498Z,95451.09
2022-11-29T00:38:35.203Z,95445.94
2022-11-29T00:41:03.077Z,95445.09
2022-11-29T00:43:29.684Z,95448.34
2022-11-29T00:45:56.839Z,95445.81
2022-11-29T00:48:23.444Z,95443.94
2022-11-29T00:50:50.101Z,95443.91
2022-11-29T00:53:16.758Z,95444.63
2022-11-29T00:55:51.454Z,95446.28
2022-11-29T00:58:19.054Z,95443.75
2022-11-29T01:00:45.755Z,95446.22
2022-11-29T01:03:12.351Z,95443.66
2022-11-29T01:05:38.928Z,95446.41
2022-11-29T01:08:06.052Z,95447.16
2022-11-29T01:10:32.975Z,95452.47
2022-11-29T01:12:59.613Z,95452.41
2022-11-29T01:15:26.452Z,95446.34
2022-11-29T01:17:53.682Z,95455.06
2022-11-29T01:20:20.435Z,95452.56
2022-11-29T01:22:47.118Z,95454.41
2022-11-29T01:25:14.283Z,95451.00
2022-11-29T01:27:41.632Z,95459.22
2022-11-29T01:30:09.903Z,95454.91
2022-11-29T01:32:37.314Z,95450.94
2022-11-29T01:35:05.284Z,95458.47
2022-11-29T01:37:32.034Z,95452.69
2022-11-29T01:39:58.622Z,95455.88
2022-11-29T01:42:25.248Z,95458.69
2022-11-29T01:45:07.863Z,95459.59
2022-11-29T01:47:38.950Z,95448.09
2022-11-29T01:50:08.743Z,95451.69
2022-11-29T01:52:35.611Z,95444.03
2022-11-29T01:55:05.779Z,95451.91
2022-11-29T01:57:33.957Z,95456.03
2022-11-29T02:00:09.877Z,95457.69
2022-11-29T02:03:10.242Z,95454.09
2022-11-29T02:05:47.344Z,95452.09
2022-11-29T02:08:18.161Z,95452.91
2022-11-29T02:11:03.790Z,95458.16
2022-11-29T02:13:51.614Z,95452.91
2022-11-29T02:16:47.709Z,95455.56
2022-11-29T02:19:17.250Z,95451.25
2022-11-29T02:21:58.076Z,95454.34
2022-11-29T02:24:51.120Z,95460.47
2022-11-29T02:27:20.680Z,95452.94
2022-11-29T02:30:02.408Z,95458.28
2022-11-29T02:32:38.057Z,95455.53
2022-11-29T02:35:23.471Z,95455.69
2022-11-29T02:38:19.805Z,95462.28
2022-11-29T02:41:13.848Z,95456.75
2022-11-29T02:43:49.753Z,95456.50
2022-11-29T02:46:19.376Z,95456.53
2022-11-29T02:49:04.697Z,95457.22
2022-11-29T02:51:42.752Z,95464.41
2022-11-29T02:54:26.483Z,95455.63
2022-11-29T02:57:18.007Z,95466.88
2022-11-29T03:00:06.037Z,95461.97
2022-11-29T03:02:36.734Z,95458.56
2022-11-29T03:05:19.769Z,95459.22
2022-11-29T03:08:01.051Z,95458.66
2022-11-29T03:10:43.553Z,95468.34
2022-11-29T03:13:22.879Z,95458.03
2022-11-29T03:15:54.491Z,95458.97
2022-11-29T03:18:55.982Z,95466.41
2022-11-29T03:21:22.513Z,95463.69
2022-11-29T03:23:58.863Z,95469.16
2022-11-29T03:26:52.043Z,95473.69
2022-11-29T03:29:32.654Z,95471.28
2022-11-29T03:32:12.760Z,95480.00
2022-11-29T03:34:42.499Z,95467.41
2022-11-29T03:37:29.717Z,95476.34
2022-11-29T03:40:12.560Z,95468.34
2022-11-29T03:43:04.093Z,95474.28
2022-11-29T03:45:50.836Z,95482.78
2022-11-29T03:48:35.181Z,95475.22
2022-11-29T03:51:33.975Z,95473.19
2022-11-29T03:54:07.645Z,95476.44
2022-11-29T03:56:40.073Z,95480.72
2022-11-29T03:59:48.433Z,95484.16
2022-11-29T04:02:18.029Z,95484.94
2022-11-29T04:05:10.252Z,95484.09
2022-11-29T04:08:05.835Z,95487.00
2022-11-29T04:10:57.265Z,95485.94
2022-11-29T04:13:54.812Z,95486.09
2022-11-29T04:16:21.528Z,95487.59
2022-11-29T04:19:06.946Z,95484.53
2022-11-29T04:21:40.461Z,95491.53
2022-11-29T04:24:31.936Z,95495.81
2022-11-29T04:27:17.151Z,95495.00
2022-11-29T04:30:19.637Z,95495.75
2022-11-29T04:33:03.406Z,95499.53
2022-11-29T04:35:49.564Z,95505.53
2022-11-29T04:39:09.845Z,95502.06
2022-11-29T04:42:06.455Z,95505.47
2022-11-29T04:45:04.478Z,95511.13
2022-11-29T04:47:48.624Z,95498.53
2022-11-29T04:50:35.931Z,95509.06
2022-11-29T04:53:27.584Z,95506.81
2022-11-29T04:56:26.671Z,95504.13
2022-11-29T04:59:05.877Z,95505.38
2022-11-29T05:01:54.585Z,95509.44
2022-11-29T05:04:28.110Z,95512.31
2022-11-29T05:07:27.474Z,95517.25
2022-11-29T05:10:32.586Z,95522.94
2022-11-29T05:13:25.052Z,95521.34
2022-11-29T05:16:19.151Z,95522.22
2022-11-29T05:18:57.626Z,95525.50
2022-11-29T05:21:42.864Z,95516.06
2022-11-29T05:24:25.038Z,95525.78
2022-11-29T05:27:20.657Z,95526.69
2022-11-29T05:30:07.426Z,95524.72
2022-11-29T05:32:43.079Z,95526.41
2022-11-29T05:35:29.436Z,95525.41
2022-11-29T05:38:31.733Z,95515.72
2022-11-29T05:41:06.066Z,95523.00
2022-11-29T05:43:54.072Z,95523.06
2022-11-29T05:46:29.911Z,95523.97
2022-11-29T05:49:27.497Z,95526.63
2022-11-29T05:52:09.459Z,95531.56
2022-11-29T05:54:55.792Z,95529.06
2022-11-29T05:57:43.752Z,95530.97
2022-11-29T06:00:12.350Z,95534.56
2022-11-29T06:02:56.099Z,95535.94
2022-11-29T06:05:47.773Z,95533.94
2022-11-29T06:08:33.004Z,95542.09
2022-11-29T06:11:20.748Z,95539.19
2022-11-29T06:13:54.629Z,95540.94
2022-11-29T06:16:33.973Z,95544.19
2022-11-29T06:19:25.502Z,95552.88
2022-11-29T06:22:08.716Z,95553.91
2022-11-29T06:24:45.566Z,95557.97
2022-11-29T06:27:31.722Z,95549.31
2022-11-29T06:30:09.912Z,95560.56
2022-11-29T06:33:01.414Z,95554.16
2022-11-29T06:36:09.832Z,95560.66
2022-11-29T06:38:36.552Z,95555.31
2022-11-29T06:41:03.452Z,95562.69
2022-11-29T06:43:30.801Z,95571.16
2022-11-29T06:46:04.327Z,95566.13
2022-11-29T06:48:42.001Z,95570.78
2022-11-29T06:51:22.218Z,95573.88
2022-11-29T06:54:00.027Z,95572.56
2022-11-29T06:56:38.220Z,95576.09
2022-11-29T06:59:27.774Z,95573.00
2022-11-29T07:02:04.741Z,95581.19
2022-11-29T07:04:45.670Z,95580.34
2022-11-29T07:07:18.552Z,95578.75
2022-11-29T07:09:47.128Z,95586.66
2022-11-29T07:12:14.220Z,95583.53
2022-11-29T07:14:41.204Z,95589.88
2022-11-29T07:17:29.264Z,95590.28
2022-11-29T07:20:14.594Z,95592.72
2022-11-29T07:22:59.782Z,95595.50
2022-11-29T07:25:35.404Z,95596.81
2022-11-29T07:28:20.907Z,95602.44
2022-11-29T07:30:59.502Z,95599.75
2022-11-29T07:33:35.225Z,95602.50
2022-11-29T07:36:20.533Z,95606.38
2022-11-29T07:38:59.173Z,95606.25
2022-11-29T07:41:44.850Z,95605.53
2022-11-29T07:44:29.835Z,95603.28
2022-11-29T07:46:56.644Z,95599.81
2022-11-29T07:49:23.312Z,95604.06
2022-11-29T07:51:49.978Z,95605.56
2022-11-29T07:54:18.859Z,95611.25
2022-11-29T07:56:45.914Z,95609.34
2022-11-29T07:59:12.996Z,95617.53
2022-11-29T08:01:40.609Z,95621.66
2022-11-29T08:04:08.453Z,95623.09
2022-11-29T08:06:36.023Z,95619.78
2022-11-29T08:09:04.416Z,95620.50
2022-11-29T08:11:31.607Z,95627.50
2022-11-29T08:13:59.711Z,95626.66
2022-11-29T08:16:26.538Z,95632.41
2022-11-29T08:18:53.260Z,95622.69
2022-11-29T08:21:19.958Z,95636.63
2022-11-29T08:23:48.000Z,95629.72
2022-11-29T08:26:15.797Z,95634.56
2022-11-29T08:28:42.649Z,95632.03
2022-11-29T08:31:11.539Z,95636.00
2022-11-29T08:33:40.701Z,95646.34
2022-11-29T08:36:11.776Z,95641.69
2022-11-29T08:38:38.549Z,95642.31
2022-11-29T08:41:07.233Z,95642.31
2022-11-29T08:43:34.322Z,95644.91
2022-11-29T08:46:01.191Z,95645.66
2022-11-29T08:48:27.909Z,95650.09
2022-11-29T08:50:56.362Z,95649.31
2022-11-29T08:53:41.933Z,95649.47
2022-11-29T08:56:49.501Z,95650.13
2022-11-29T08:58:58.293Z,95649.88
2022-11-29T09:01:24.997Z,95653.44
2022-11-29T09:04:02.499Z,95652.56
2022-11-29T09:06:34.048Z,95657.69
2022-11-29T09:09:01.174Z,95658.53
2022-11-29T09:11:30.315Z,95651.44
2022-11-29T09:14:00.101Z,95660.28
2022-11-29T09:16:29.526Z,95667.63
2022-11-29T09:18:57.392Z,95658.41
2022-11-29T09:21:26.020Z,95665.59
2022-11-29T09:23:58.841Z,95668.88
2022-11-29T09:26:27.892Z,95667.06
2022-11-29T09:28:55.790Z,95670.28
2022-11-29T09:31:22.490Z,95672.75
2022-11-29T09:33:49.174Z,95677.28
2022-11-29T09:36:16.467Z,95674.59
2022-11-29T09:38:43.059Z,95680.53
2022-11-29T09:41:48.882Z,95676.44
2022-11-29T09:44:34.388Z,95671.25
2022-11-29T09:47:14.891Z,95678.97
2022-11-29T09:50:06.337Z,95678.06
2022-11-29T09:53:05.577Z,95677.91
2022-11-29T09:55:49.315Z,95680.63
2022-11-29T09:58:20.937Z,95688.50
2022-11-29T10:00:49.823Z,95685.91
2022-11-29T10:03:25.599Z,95685.75
2022-11-29T10:05:59.958Z,95688.25
2022-11-29T10:08:45.425Z,95687.72
2022-11-29T10:11:20.745Z,95686.47
2022-11-29T10:13:54.258Z,95693.88
2022-11-29T10:16:45.467Z,95683.72
2022-11-29T10:19:12.505Z,95693.22
2022-11-29T10:21:43.749Z,95690.69
2022-11-29T10:24:14.715Z,95683.78
2022-11-29T10:26:43.513Z,95688.91
2022-11-29T10:29:14.834Z,95685.25
2022-11-29T10:31:44.571Z,95685.25
2022-11-29T10:34:20.579Z,95675.72
2022-11-29T10:36:50.257Z,95684.97
2022-11-29T10:39:24.518Z,95682.44
2022-11-29T10:41:55.941Z,95678.91
2022-11-29T10:44:24.274Z,95680.78
2022-11-29T10:46:51.981Z,95675.66
2022-11-29T10:49:20.935Z,95676.59
2022-11-29T10:51:47.794Z,95674.00
2022-11-29T10:54:20.530Z,95681.13
2022-11-29T10:56:47.936Z,95677.53
2022-11-29T10:59:26.408Z,95672.22
2022-11-29T11:01:53.764Z,95677.59
2022-11-29T11:04:33.930Z,95678.16
2022-11-29T11:07:03.454Z,95684.97
2022-11-29T11:09:53.079Z,95675.94
2022-11-29T11:12:23.147Z,95676.72
2022-11-29T11:14:51.428Z,95676.94
2022-11-29T11:17:32.618Z,95684.59
2022-11-29T11:20:05.791Z,95676.25
2022-11-29T11:22:33.739Z,95678.78
2022-11-29T11:25:04.866Z,95671.78
2022-11-29T11:27:39.967Z,95672.56
2022-11-29T11:30:18.126Z,95671.78
2022-11-29T11:33:07.273Z,95678.91
2022-11-29T11:35:34.096Z,95676.97
2022-11-29T11:38:00.714Z,95685.09
2022-11-29T11:40:30.397Z,95684.00
2022-11-29T11:42:59.503Z,95684.56
2022-11-29T11:45:36.453Z,95684.47
2022-11-29T11:48:11.100Z,95682.63
2022-11-29T11:50:45.485Z,95678.88
2022-11-29T11:53:25.381Z,95684.34
2022-11-29T11:56:07.647Z,95684.63
2022-11-29T11:58:55.506Z,95683.31
2022-11-29T12:01:39.264Z,95693.53
2022-11-29T12:04:13.731Z,95684.56
2022-11-29T12:06:52.545Z,95685.44
2022-11-29T12:09:46.338Z,95683.56
2022-11-29T12:12:15.472Z,95687.75
2022-11-29T12:15:00.940Z,95688.22
2022-11-29T12:17:44.353Z,95689.28
2022-11-29T12:20:30.378Z,95697.59
2022-11-29T12:23:20.081Z,95699.34
2022-11-29T12:26:05.421Z,95704.22
2022-11-29T12:28:34.786Z,95701.00
2022-11-29T12:31:07.340Z,95700.00
2022-11-29T12:33:49.889Z,95702.50
2022-11-29T12:36:37.816Z,95705.88
2022-11-29T12:39:22.519Z,95705.66
2022-11-29T12:42:21.670Z,95710.13
2022-11-29T12:45:19.386Z,95705.81
2022-11-29T12:48:13.601Z,95706.47
2022-11-29T12:50:48.986Z,95711.44
2022-11-29T12:53:41.487Z,95709.47
2022-11-29T12:56:25.750Z,95702.91
2022-11-29T12:59:23.295Z,95714.47
2022-11-29T13:02:32.302Z,95707.44
2022-11-29T13:05:43.524Z,95708.38
2022-11-29T13:08:54.696Z,95716.13
2022-11-29T13:11:28.872Z,95713.22
2022-11-29T13:14:42.710Z,95709.19
2022-11-29T13:17:30.311Z,95712.22
2022-11-29T13:20:18.862Z,95710.75
2022-11-29T13:22:57.501Z,95723.91
2022-11-29T13:25:28.749Z,95712.91
2022-11-29T13:28:01.948Z,95715.06
2022-11-29T13:30:28.614Z,95718.94
2022-11-29T13:33:13.353Z,95710.25
2022-11-29T13:35:53.422Z,95718.22
2022-11-29T13:38:41.267Z,95711.44
2022-11-29T13:41:33.742Z,95715.31
2022-11-29T13:44:29.197Z,95723.56
2022-11-29T13:47:04.245Z,95720.09
2022-11-29T13:49:52.996Z,95716.34
2022-11-29T13:52:45.349Z,95717.19
2022-11-29T13:55:11.920Z,95721.81
2022-11-29T13:58:20.933Z,95725.88
2022-11-29T14:00:47.502Z,95722.84
2022-11-29T14:03:22.982Z,95727.38
2022-11-29T14:06:03.319Z,95733.50
2022-11-29T14:09:17.181Z,95726.00
2022-11-29T14:11:54.437Z,95729.06
2022-11-29T14:14:48.267Z,95732.06
2022-11-29T14:17:46.571Z,95727.28
2022-11-29T14:20:22.360Z,95730.09
2022-11-29T14:23:04.344Z,95734.66
2022-11-29T14:28:22.780Z,95735.94
2022-11-29T14:30:57.146Z,95730.63
2022-11-29T14:33:42.622Z,95733.22
2022-11-29T14:36:23.861Z,95738.09
2022-11-29T14:39:28.023Z,95741.13
2022-11-29T14:42:03.584Z,95739.13
2022-11-29T14:44:32.149Z,95740.91
2022-11-29T14:47:31.871Z,95740.00
2022-11-29T14:50:01.547Z,95746.81
2022-11-29T14:52:50.548Z,95748.50
2022-11-29T14:55:17.095Z,95743.13
2022-11-29T14:57:50.049Z,95753.91
2022-11-29T15:00:24.708Z,95757.88
2022-11-29T15:03:12.855Z,95755.34
2022-11-29T15:05:48.762Z,95762.75
2022-11-29T15:08:50.135Z,95760.94
2022-11-29T15:11:53.042Z,95770.00
2022-11-29T15:14:25.294Z,95769.13
2022-11-29T15:17:34.327Z,95764.22
2022-11-29T15:20:28.357Z,95766.50
2022-11-29T15:22:59.523Z,95764.59
2022-11-29T15:25:30.957Z,95769.25
2022-11-29T15:28:05.963Z,95775.69
2022-11-29T15:30:41.240Z,95772.59
2022-11-29T15:33:23.424Z,95775.75
2022-11-29T15:35:55.546Z,95776.94
2022-11-29T15:38:23.983Z,95781.78
2022-11-29T15:40:54.894Z,95783.22
2022-11-29T15:43:40.899Z,95788.03
2022-11-29T15:46:18.931Z,95789.41
2022-11-29T15:48:45.581Z,95792.88
2022-11-29T15:51:41.321Z,95790.34
2022-11-29T15:54:24.136Z,95793.72
2022-11-29T15:56:59.497Z,95799.50
2022-11-29T15:59:48.303Z,95797.41
2022-11-29T16:02:14.877Z,95803.19
2022-11-29T16:04:46.763Z,95812.19
2022-11-29T16:07:14.576Z,95803.13
2022-11-29T16:09:47.160Z,95815.00
2022-11-29T16:12:16.327Z,95816.53
2022-11-29T16:14:52.777Z,95817.59
2022-11-29T16:17:26.661Z,95810.50
2022-11-29T16:20:25.553Z,95811.31
2022-11-29T16:23:13.079Z,95809.81
2022-11-29T16:25:54.215Z,95813.28
2022-11-29T16:28:20.959Z,95819.00
2022-11-29T16:30:47.706Z,95814.47
2022-11-29T16:33:24.566Z,95822.91
2022-11-29T16:35:51.815Z,95827.53
2022-11-29T16:38:21.837Z,95829.56
2022-11-29T16:41:34.656Z,95832.00
2022-11-29T16:44:03.521Z,95831.22
2022-11-29T16:46:34.434Z,95825.69
2022-11-29T16:49:22.455Z,95840.34
2022-11-29T16:51:49.385Z,95827.44
2022-11-29T16:54:22.699Z,95834.44
2022-11-29T16:56:51.264Z,95835.44
2022-11-29T16:59:26.434Z,95833.72
2022-11-29T17:01:55.750Z,95836.34
2022-11-29T17:04:23.835Z,95836.50
2022-11-29T17:06:56.234Z,95839.31
2022-11-29T17:09:26.283Z,95834.44
2022-11-29T17:11:54.486Z,95837.06
2022-11-29T17:14:21.379Z,95836.03
2022-11-29T17:16:52.050Z,95837.88
2022-11-29T17:19:24.704Z,95830.25
2022-11-29T17:21:52.740Z,95834.13
2022-11-29T17:24:21.703Z,95824.03
2022-11-29T17:26:48.416Z,95819.25
2022-11-29T17:29:16.330Z,95817.84
2022-11-29T17:31:44.643Z,95823.94
2022-11-29T17:34:11.894Z,95828.28
2022-11-29T17:36:38.856Z,95829.31
2022-11-29T17:39:05.576Z,95831.84
2022-11-29T17:41:32.983Z,95839.94
2022-11-29T17:44:00.116Z,95840.00
2022-11-29T17:46:32.427Z,95842.00
2022-11-29T17:49:00.139Z,95840.38
2022-11-29T17:54:14.177Z,95846.81
2022-11-29T17:56:40.779Z,95851.97
2022-11-29T17:59:07.407Z,95854.13
2022-11-29T18:01:35.839Z,95842.06
2022-11-29T18:04:05.516Z,95850.00
2022-11-29T18:06:37.841Z,95856.59
2022-11-29T18:09:06.331Z,95854.75
2022-11-29T18:11:49.859Z,95855.97
2022-11-29T18:14:19.697Z,95865.00
2022-11-29T18:16:46.610Z,95858.31
2022-11-29T18:19:15.626Z,95864.22
2022-11-29T18:21:42.272Z,95864.28
2022-11-29T18:24:09.599Z,95863.69
2022-11-29T18:26:37.421Z,95868.97
2022-11-29T18:29:05.680Z,95881.81
2022-11-29T18:31:35.838Z,95880.63
2022-11-29T18:34:06.998Z,95875.03
2022-11-29T18:36:37.463Z,95878.72
2022-11-29T18:39:09.448Z,95878.72
2022-11-29T18:41:36.658Z,95887.09
2022-11-29T18:44:06.456Z,95887.78
2022-11-29T18:46:35.672Z,95889.59
2022-11-29T18:49:06.495Z,95888.78
2022-11-29T18:51:34.231Z,95884.81
2022-11-29T18:54:01.199Z,95889.59
2022-11-29T18:56:30.067Z,95891.22
2022-11-29T18:59:23.081Z,95887.97
2022-11-29T19:01:49.863Z,95891.66
2022-11-29T19:04:19.217Z,95886.09
2022-11-29T19:06:46.263Z,95885.97
2022-11-29T19:09:16.184Z,95891.63
2022-11-29T19:11:42.815Z,95893.97
2022-11-29T19:14:11.954Z,95891.56
2022-11-29T19:16:40.680Z,95889.97
2022-11-29T19:19:07.366Z,95895.69
2022-11-29T19:21:37.101Z,95895.78
2022-11-29T19:24:06.791Z,95887.53
2022-11-29T19:26:34.529Z,95894.91
2022-11-29T19:29:01.693Z,95889.78
2022-11-29T19:31:28.902Z,95889.06
2022-11-29T19:33:56.204Z,95886.09
2022-11-29T19:36:25.109Z,95889.84
2022-11-29T19:38:54.156Z,95893.66
2022-11-29T19:41:29.963Z,95889.91
2022-11-29T19:43:58.353Z,95882.88
2022-11-29T19:46:30.123Z,95887.94
2022-11-29T19:48:58.622Z,95895.69
2022-11-29T19:51:27.201Z,95891.44
2022-11-29T19:53:59.640Z,95899.97
2022-11-29T19:56:27.174Z,95900.19
2022-11-29T19:58:54.282Z,95896.69
2022-11-29T20:01:25.097Z,95897.81
2022-11-29T20:03:52.501Z,95903.47
2022-11-29T20:06:19.476Z,95904.38
2022-11-29T20:08:47.024Z,95900.44
2022-11-29T20:11:17.655Z,95911.06
2022-11-29T20:13:52.473Z,95905.75
2022-11-29T20:16:21.995Z,95907.56
2022-11-29T20:18:51.135Z,95905.38
2022-11-29T20:21:31.474Z,95909.44
2022-11-29T20:24:04.232Z,95909.22
2022-11-29T20:26:33.164Z,95909.69
2022-11-29T20:29:00.340Z,95914.66
2022-11-29T20:31:27.977Z,95911.31
2022-11-29T20:33:57.280Z,95923.34
2022-11-29T20:36:32.925Z,95916.78
2022-11-29T20:39:36.701Z,95921.28
2022-11-29T20:42:41.423Z,95924.06
2022-11-29T20:45:12.184Z,95920.59
2022-11-29T20:47:49.454Z,95931.50
2022-11-29T20:50:23.766Z,95930.56
2022-11-29T20:53:03.486Z,95928.72
2022-11-29T20:55:30.525Z,95930.78
2022-11-29T20:57:57.437Z,95925.69
2022-11-29T21:00:24.245Z,95924.97
2022-11-29T21:02:50.985Z,95933.41
2022-11-29T21:05:18.855Z,95930.66
2022-11-29T21:07:46.678Z,95932.81
2022-11-29T21:10:15.523Z,95931.66
2022-11-29T21:12:45.534Z,95928.78
2022-11-29T21:15:14.300Z,95929.28
2022-11-29T21:17:42.494Z,95924.16
2022-11-29T21:20:18.126Z,95933.16
2022-11-29T21:23:00.707Z,95928.75
2022-11-29T21:25:27.419Z,95922.50
2022-11-29T21:27:55.236Z,95923.72
2022-11-29T21:30:24.121Z,95920.06
2022-11-29T21:32:51.355Z,95921.19
2022-11-29T21:35:18.183Z,95930.03
2022-11-29T21:37:45.678Z,95923.09
2022-11-29T21:40:13.433Z,95936.09
2022-11-29T21:42:40.245Z,95928.63
2022-11-29T21:45:14.621Z,95930.31
2022-11-29T21:47:42.039Z,95924.25
2022-11-29T21:50:09.077Z,95932.84
2022-11-29T21:52:35.694Z,95928.13
2022-11-29T21:55:02.458Z,95927.03
2022-11-29T21:57:29.086Z,95927.47
2022-11-29T21:59:55.668Z,95936.63
2022-11-29T22:02:22.356Z,95935.88
2022-11-29T22:04:49.201Z,95934.19
2022-11-29T22:07:15.942Z,95934.97
2022-11-29T22:09:42.534Z,95932.75
2022-11-29T22:12:31.963Z,95937.91
2022-11-29T22:14:56.186Z,95936.78
2022-11-29T22:17:22.773Z,95928.97
2022-11-29T22:19:49.389Z,95930.66
2022-11-29T22:22:16.220Z,95935.75
2022-11-29T22:24:42.856Z,95931.63
2022-11-29T22:27:09.442Z,95936.94
2022-11-29T22:29:36.335Z,95933.94
2022-11-29T22:32:03.165Z,95930.53
2022-11-29T22:34:29.806Z,95931.56
2022-11-29T22:36:56.572Z,95933.31
2022-11-29T22:39:23.944Z,95931.19
2022-11-29T22:41:54.242Z,95938.50
2022-11-29T22:44:22.524Z,95931.97
2022-11-29T22:46:49.359Z,95937.19
2022-11-29T22:49:15.997Z,95936.31
2022-11-29T22:51:42.739Z,95932.06
2022-11-29T22:54:11.649Z,95928.22
2022-11-29T22:56:41.318Z,95926.84
2022-11-29T22:59:09.046Z,95928.22
2022-11-29T23:01:38.168Z,95933.06
2022-11-29T23:04:07.196Z,95926.69
2022-11-29T23:06:40.148Z,95934.28
2022-11-29T23:09:11.854Z,95932.06
2022-11-29T23:11:38.831Z,95926.88
2022-11-29T23:14:05.527Z,95933.94
2022-11-29T23:16:33.084Z,95928.94
2022-11-29T23:19:01.111Z,95935.78
2022-11-29T23:21:29.141Z,95934.81
2022-11-29T23:23:56.998Z,95925.03
2022-11-29T23:26:31.825Z,95930.66
2022-11-29T23:28:58.485Z,95934.19
2022-11-29T23:31:25.334Z,95934.44
2022-11-29T23:33:52.089Z,95935.22
2022-11-29T23:36:20.385Z,95946.91
2022-11-29T23:38:47.594Z,95942.22
2022-11-29T23:41:14.816Z,95938.38
2022-11-29T23:43:42.372Z,95933.72
2022-11-29T23:46:20.589Z,95937.72
2022-11-29T23:48:48.480Z,95937.34
2022-11-29T23:51:15.739Z,95930.03
2022-11-29T23:53:42.911Z,95927.66
2022-11-29T23:56:17.297Z,95926.88
2022-11-29T23:58:44.863Z,95925.28
